METAR Data
IDs: Format: Raw Decoded Include TAF

Data at: 0829 UTC 07 Apr 2020

KOXC 070751Z AUTO 01004KT 10SM FEW070 OVC090 07/M05 A2994 RMK AO2 SLP152 T00721050
KOXC 070651Z AUTO 34005KT 10SM BKN095 BKN120 07/M06 A2995 RMK AO2 SLP154 T00721061
KOXC 070551Z AUTO 33008KT 10SM BKN100 08/M07 A2996 RMK AO2 SLP159 T00831072 10133 20056 50001
KOXC 070451Z AUTO 34003KT 10SM CLR 07/M06 A2996 RMK AO2 SLP162 T00671061 401610050
KOXC 070351Z AUTO 30003KT 10SM CLR 09/M09 A2996 RMK AO2 SLP159 T00941094
KOXC 070251Z AUTO 32004KT 10SM CLR 10/M09 A2995 RMK AO2 SLP158 T01001089 50010
KOXC 070151Z AUTO 32005KT 10SM CLR 11/M09 A2996 RMK AO2 SLP159 T01111089
KOXC 070051Z 33004KT 10SM CLR 12/M07 A2995 RMK AO2 SLP155 T01221072
KOXC 062351Z 30003KT 10SM CLR 13/M06 A2992 RMK AO2 SLP148 T01331056 10161 20133 56002
KOXC 062251Z 31004KT 10SM CLR 14/M05 A2992 RMK AO2 SLP148 T01441050
KOXC 062151Z 34011G17KT 10SM CLR 16/M06 A2992 RMK AO2 SLP146 T01561056
KOXC 062051Z 29011G17KT 10SM CLR 16/M08 A2993 RMK AO2 SLP148 T01561078 56017
KOXC 061951Z 32008KT 280V350 10SM CLR 16/M06 A2994 RMK AO2 SLP151 T01561061
KOXC 061851Z 32006G16KT 10SM CLR 14/M05 A2997 RMK AO2 SLP161 T01441050
KOXC 061751Z 33007G16KT 280V020 10SM CLR 14/M07 A2998 RMK AO2 SLP167 T01391067 10144 20067 58020
KOXC 061651Z 00000KT 10SM CLR 13/M03 A3000 RMK AO2 SLP172 T01281028
KOXC 061551Z 01011G17KT 10SM CLR 12/M02 A3003 RMK AO2 SLP181 T01221022
KOXC 061451Z 35010G17KT 10SM CLR 11/M01 A3004 RMK AO2 SLP186 T01111011 50001
KOXC 061351Z 33010G15KT 10SM CLR 09/01 A3005 RMK AO2 SLP189 T00940006
KOXC 061251Z 36008KT 10SM CLR 08/02 A3005 RMK AO2 SLP190 T00830022
KOXC 061151Z 36009KT 10SM CLR 07/03 A3004 RMK AO2 SLP187 T00670028 10083 20050 53017
KOXC 061051Z 01007KT 10SM FEW070 05/02 A3002 RMK AO2 SLP182 T00500017
KOXC 060951Z AUTO 35009KT 10SM FEW050 06/02 A3000 RMK AO2 SLP170 T00610022
KOXC 060851Z AUTO 36011KT 10SM OVC075 07/03 A2999 RMK AO2 SLP168 T00720033 53001
KOXC 060751Z AUTO 34008KT 10SM BKN055 OVC070 08/04 A2998 RMK AO2 SLP168 T00830039
KOXC 060651Z AUTO 35009KT 10SM SCT060 BKN090 08/04 A2998 RMK AO2 SLP165 T00780044
KOXC 060551Z AUTO 35007KT 10SM BKN050 OVC080 07/07 A2998 RMK AO2 SLP168 T00720067 10089 20044 58004
KOXC 060451Z AUTO 36004KT 8SM CLR 06/05 A2999 RMK AO2 SLP168 T00560050 401500050
KOXC 060351Z AUTO 00000KT 8SM CLR 06/06 A3000 RMK AO2 SLP172 T00610056
KOXC 060251Z AUTO 00000KT 10SM CLR 07/06 A3000 RMK AO2 SLP172 T00720061 50001
KOXC 060151Z AUTO 05003KT 10SM CLR 07/06 A3001 RMK AO2 SLP177 T00720061
KOXC 060051Z 17006KT 10SM CLR 08/06 A3000 RMK AO2 SLP175 T00780061
KOXC 052351Z 16006KT 10SM FEW055 BKN075 09/07 A2999 RMK AO2 SLP171 T00890067 10150 20089 51004
KOXC 052251Z 17007KT 10SM BKN055 11/07 A2999 RMK AO2 SLP168 T01060067
KOXC 052151Z 16007KT 10SM OVC048 12/07 A2999 RMK AO2 SLP168 T01170072
KOXC 052051Z 16009KT 10SM OVC050 13/08 A2998 RMK AO2 SLP167 T01330078 56012